^^
MeteoGriva-Weather Station Historical Data
Daily Summary for January 16, 2021 Units:  Metric    English   Both
Daily Weekly Monthly Yearly Custom
  High: Low: Average:
Temperature: 0.7 °C -4.7 °C -1.8 °C
Dew Point: -3 °C -13.6 °C -6.6 °C
Humidity: 96% 47.8% 71%
Wind Speed: 17km/h 0.2km/h 4.8km/h
Wind Gust: 30.3km/h - -
Wind- - SSE
Pressure: 1016.9 hPa 1014.2 hPa -
Precipitation: 0.0 mm    
Historical Graphs
 
 
Tabular Data for January 16, 2021
Time Temperature Dew Point Pressure Wind Wind Speed Wind Gust Humidity Rainfall Rate (Hourly) solar
00:04 0.7 °C -6.5 °C 1016.9 hPa NNW 9.1 km/h 16.6 km/h 59% 0.0 mm 0 W/m2
00:09 0.7 °C -6.3 °C 1016.6 hPa North 7.8 km/h 15.4 km/h 60% 0.0 mm 0 W/m2
00:14 0.7 °C -6.4 °C 1016.6 hPa North 7.6 km/h 16.9 km/h 59.2% 0.0 mm 0 W/m2
00:19 0.7 °C -6.2 °C 1016.6 hPa North 7.2 km/h 13.4 km/h 60% 0.0 mm 0 W/m2
00:24 0.7 °C -6.2 °C 1016.6 hPa North 6.7 km/h 13.4 km/h 60% 0.0 mm 0 W/m2
00:29 0.7 °C -6.3 °C 1016.3 hPa North 6.5 km/h 13.4 km/h 59.8% 0.0 mm 0 W/m2
00:34 0.7 °C -6.3 °C 1016.3 hPa North 6.4 km/h 10.8 km/h 59.8% 0.0 mm 0 W/m2
00:39 0.7 °C -6.3 °C 1016.6 hPa North 7 km/h 15.8 km/h 59.6% 0.0 mm 0 W/m2
00:44 0.7 °C -6.4 °C 1016.6 hPa North 8.1 km/h 14 km/h 58.8% 0.0 mm 0 W/m2
00:49 0.7 °C -6.4 °C 1016.3 hPa North 7.1 km/h 15.4 km/h 59% 0.0 mm 0 W/m2
00:54 0.7 °C -6.3 °C 1016.3 hPa North 6.7 km/h 12.6 km/h 59.3% 0.0 mm 0 W/m2
00:59 0.7 °C -6.4 °C 1016.3 hPa North 8.2 km/h 15.1 km/h 59% 0.0 mm 0 W/m2
01:04 0.7 °C -6.4 °C 1016.3 hPa NNW 8.2 km/h 13.4 km/h 59% 0.0 mm 0 W/m2
01:09 0.7 °C -6.4 °C 1016.3 hPa NNW 10.3 km/h 18 km/h 59% 0.0 mm 0 W/m2
01:14 0.7 °C -6.4 °C 1016.3 hPa NNW 8.5 km/h 18 km/h 58.8% 0.0 mm 0 W/m2
01:19 0.7 °C -6.4 °C 1016.3 hPa NNW 7.1 km/h 16.6 km/h 58.8% 0.0 mm 0 W/m2
01:24 0.7 °C -6.3 °C 1016.3 hPa North 7.4 km/h 13.4 km/h 59% 0.0 mm 0 W/m2
01:29 0.7 °C -6.3 °C 1016.3 hPa North 6.6 km/h 11.6 km/h 59.2% 0.0 mm 0 W/m2
01:34 0.7 °C -6.3 °C 1016.3 hPa NNW 4.9 km/h 9 km/h 59.6% 0.0 mm 0 W/m2
01:39 0.7 °C -6 °C 1016.3 hPa NW 4.2 km/h 9.7 km/h 60.6% 0.0 mm 0 W/m2
01:44 0.7 °C -5.9 °C 1016.3 hPa NNW 6.4 km/h 12.6 km/h 61.2% 0.0 mm 0 W/m2
01:49 0.6 °C -5.8 °C 1016.3 hPa North 7.8 km/h 19.2 km/h 61.8% 0.0 mm 0 W/m2
01:54 0.6 °C -5.7 °C 1016.3 hPa North 6.5 km/h 11.9 km/h 63% 0.0 mm 0 W/m2
01:59 0.5 °C -5.7 °C 1016.3 hPa North 5.3 km/h 10.1 km/h 63% 0.0 mm 0 W/m2
02:04 0.5 °C -5.6 °C 1016.3 hPa North 2.9 km/h 10.1 km/h 63.6% 0.0 mm 0 W/m2
02:09 0.4 °C -5.3 °C 1016.3 hPa NNW 5.1 km/h 10.5 km/h 65.2% 0.0 mm 0 W/m2
02:14 0.3 °C -5.1 °C 1016.3 hPa NNW 7.2 km/h 13 km/h 66.8% 0.0 mm 0 W/m2
02:19 0.2 °C -4.9 °C 1016.3 hPa North 6.8 km/h 13 km/h 68.4% 0.0 mm 0 W/m2
02:24 0.1 °C -4.8 °C 1016.3 hPa North 8.6 km/h 15.8 km/h 69.6% 0.0 mm 0 W/m2
02:29 -0.1 °C -4.5 °C 1016.3 hPa North 7.3 km/h 15.4 km/h 72% 0.0 mm 0 W/m2
02:34 -0.2 °C -4.3 °C 1016.3 hPa North 7.8 km/h 14.8 km/h 73.6% 0.0 mm 0 W/m2
02:39 -0.3 °C -4.3 °C 1016.3 hPa North 6.9 km/h 13.4 km/h 74.8% 0.0 mm 0 W/m2
02:44 -0.5 °C -3.9 °C 1016.3 hPa North 5.8 km/h 15.1 km/h 77.8% 0.0 mm 0 W/m2
02:49 -0.7 °C -3.7 °C 1016.3 hPa NNW 7 km/h 15.1 km/h 80% 0.0 mm 0 W/m2
02:54 -0.8 °C -3.7 °C 1016.3 hPa North 5.4 km/h 11.1 km/h 81% 0.0 mm 0 W/m2
02:59 -0.9 °C -3.8 °C 1016.3 hPa North 6 km/h 13 km/h 80.6% 0.0 mm 0 W/m2
03:04 -1 °C -4.2 °C 1016.3 hPa North 6.7 km/h 13 km/h 79% 0.0 mm 0 W/m2
03:09 -1 °C -4.1 °C 1016.3 hPa North 5.9 km/h 11.6 km/h 79.6% 0.0 mm 0 W/m2
03:14 -1 °C -3.8 °C 1016.3 hPa North 6.6 km/h 10.8 km/h 80.8% 0.0 mm 0 W/m2
03:19 -1.1 °C -3.8 °C 1016.3 hPa North 5 km/h 10.1 km/h 81.6% 0.0 mm 0 W/m2
03:24 -1.1 °C -3.8 °C 1016.3 hPa NNW 5.3 km/h 10.1 km/h 82% 0.0 mm 0 W/m2
03:29 -1.1 °C -3.9 °C 1016.3 hPa NNW 5.6 km/h 13.7 km/h 81% 0.0 mm 0 W/m2
03:34 -1.1 °C -3.9 °C 1016.3 hPa North 5.9 km/h 13.4 km/h 81% 0.0 mm 0 W/m2
03:39 -1.1 °C -4 °C 1016.3 hPa NNW 7.4 km/h 13.7 km/h 80.4% 0.0 mm 0 W/m2
03:44 -1.1 °C -4.2 °C 1016.3 hPa NNW 7 km/h 15.4 km/h 79.6% 0.0 mm 0 W/m2
03:49 -1 °C -4.3 °C 1016.3 hPa North 7 km/h 15.8 km/h 78.2% 0.0 mm 0 W/m2
03:54 -1 °C -4.3 °C 1016.3 hPa North 7.8 km/h 13.7 km/h 77.8% 0.0 mm 0 W/m2
03:59 -1 °C -4.2 °C 1016.3 hPa North 6.2 km/h 11.6 km/h 78.6% 0.0 mm 0 W/m2
04:04 -1 °C -4 °C 1015.9 hPa North 6.6 km/h 10.1 km/h 80.1% 0.0 mm 0 W/m2
04:09 -1.2 °C -3.9 °C 1015.9 hPa North 5.5 km/h 9 km/h 81.6% 0.0 mm 0 W/m2
04:14 -1.2 °C -3.9 °C 1015.9 hPa North 6.2 km/h 12.2 km/h 82.2% 0.0 mm 0 W/m2
04:19 -1.3 °C -4 °C 1015.9 hPa North 6 km/h 10.8 km/h 82.2% 0.0 mm 0 W/m2
04:29 -1.3 °C -4 °C 1015.9 hPa North 4.3 km/h 7.6 km/h 82% 0.0 mm 0 W/m2
04:34 -1.3 °C -4 °C 1015.9 hPa NNE 3.6 km/h 6.4 km/h 81.8% 0.0 mm 0 W/m2
04:39 -1.3 °C -4 °C 1015.9 hPa NNE 4.1 km/h 5.8 km/h 82% 0.0 mm 0 W/m2
04:44 -1.3 °C -4.1 °C 1015.9 hPa NNE 3.5 km/h 7.2 km/h 81.2% 0.0 mm 0 W/m2
04:49 -1.3 °C -4.3 °C 1015.9 hPa North 7 km/h 11.1 km/h 80% 0.0 mm 0 W/m2
04:54 -1.3 °C -4.3 °C 1016.3 hPa North 5.7 km/h 13 km/h 80.2% 0.0 mm 0 W/m2
04:59 -1.4 °C -4.1 °C 1016.3 hPa North 5.6 km/h 12.6 km/h 81.8% 0.0 mm 0 W/m2
05:04 -1.5 °C -3.8 °C 1016.3 hPa North 6.8 km/h 11.6 km/h 84.4% 0.0 mm 0 W/m2
05:09 -1.7 °C -3.7 °C 1016.3 hPa North 5.6 km/h 10.8 km/h 86.2% 0.0 mm 0 W/m2
05:14 -1.8 °C -3.6 °C 1015.9 hPa North 5.3 km/h 8.7 km/h 87.6% 0.0 mm 0 W/m2
05:19 -1.9 °C -3.6 °C 1015.9 hPa North 4.8 km/h 9.3 km/h 88.2% 0.0 mm 0 W/m2
05:24 -2 °C -3.6 °C 1015.9 hPa North 5.4 km/h 8.2 km/h 89% 0.0 mm 0 W/m2
05:29 -2 °C -3.5 °C 1015.9 hPa NNE 5.4 km/h 8.7 km/h 89.8% 0.0 mm 0 W/m2
05:34 -2.1 °C -3.5 °C 1015.9 hPa North 6.4 km/h 10.1 km/h 90.2% 0.0 mm 0 W/m2
05:39 -2.1 °C -3.5 °C 1015.9 hPa NNE 6.9 km/h 11.6 km/h 90.2% 0.0 mm 0 W/m2
05:44 -2.2 °C -3.4 °C 1015.9 hPa North 6.2 km/h 13 km/h 91.2% 0.0 mm 0 W/m2
05:49 -2.2 °C -3.3 °C 1015.9 hPa North 6 km/h 13 km/h 91.8% 0.0 mm 0 W/m2
05:54 -2.3 °C -3.4 °C 1015.9 hPa North 5 km/h 10.1 km/h 91.8% 0.0 mm 0 W/m2
05:59 -2.3 °C -3.3 °C 1015.9 hPa NNE 5.1 km/h 9 km/h 93% 0.0 mm 0 W/m2
06:04 -2.4 °C -3.4 °C 1015.9 hPa North 5.3 km/h 8.2 km/h 93% 0.0 mm 0 W/m2
06:09 -2.4 °C -3.4 °C 1015.9 hPa North 5.2 km/h 8.2 km/h 93% 0.0 mm 0 W/m2
06:14 -2.5 °C -3.3 °C 1015.9 hPa NNE 4.1 km/h 7.9 km/h 93.8% 0.0 mm 0 W/m2
06:19 -2.5 °C -3.3 °C 1015.9 hPa NNE 4.1 km/h 6.4 km/h 94% 0.0 mm 0 W/m2
06:24 -2.5 °C -3.2 °C 1015.9 hPa NNE 4 km/h 6.4 km/h 95% 0.0 mm 0 W/m2
06:29 -2.5 °C -3.2 °C 1015.9 hPa NNE 4.3 km/h 7.6 km/h 95% 0.0 mm 0 W/m2
06:34 -2.6 °C -3.3 °C 1015.6 hPa NNE 4.4 km/h 6.1 km/h 95% 0.0 mm 0 W/m2
06:39 -2.6 °C -3.2 °C 1015.9 hPa NNE 4.4 km/h 6.1 km/h 95.2% 0.0 mm 0 W/m2
06:44 -2.6 °C -3.1 °C 1015.9 hPa NNE 3.7 km/h 6.1 km/h 96% 0.0 mm 0 W/m2
06:49 -2.6 °C -3.1 °C 1015.9 hPa North 4 km/h 5.5 km/h 96% 0.0 mm 0 W/m2
06:54 -2.6 °C -3.1 °C 1015.9 hPa NNE 3.4 km/h 5.5 km/h 95.8% 0.0 mm 0 W/m2
06:59 -2.5 °C -3.2 °C 1015.9 hPa NNE 3.6 km/h 5 km/h 95% 0.0 mm 0 W/m2
07:04 -2.5 °C -3.2 °C 1015.9 hPa NNE 3.9 km/h 6.1 km/h 95% 0.0 mm 0 W/m2
07:09 -2.5 °C -3.2 °C 1015.9 hPa NE 3.3 km/h 5.8 km/h 95% 0.0 mm 0 W/m2
07:14 -2.5 °C -3.2 °C 1015.9 hPa NNE 3.3 km/h 6.1 km/h 95% 0.0 mm 0 W/m2
07:19 -2.5 °C -3.2 °C 1015.9 hPa NNE 3.2 km/h 5.8 km/h 95% 0.0 mm 0 W/m2
07:24 -2.4 °C -3.1 °C 1015.9 hPa NNE 3.6 km/h 6.1 km/h 95% 0.0 mm 0 W/m2
07:29 -2.4 °C -3.2 °C 1015.9 hPa NNE 3.9 km/h 5.8 km/h 95% 0.0 mm 0 W/m2
07:34 -2.5 °C -3 °C 1015.9 hPa NE 3.5 km/h 5.8 km/h 95.9% 0.0 mm 0 W/m2
07:39 -2.5 °C -3 °C 1015.6 hPa NNE 4.6 km/h 7.2 km/h 96% 0.0 mm 0 W/m2
07:44 -2.5 °C -3.2 °C 1015.6 hPa NNE 4.3 km/h 8.2 km/h 95.3% 0.0 mm 0 W/m2
07:49 -2.5 °C -3.2 °C 1015.6 hPa North 3.6 km/h 8.2 km/h 95% 0.0 mm 0 W/m2
07:54 -2.5 °C -3.2 °C 1015.6 hPa North 4.1 km/h 6.4 km/h 94.7% 0.0 mm 0 W/m2
07:59 -2.5 °C -3.3 °C 1015.6 hPa NE 4.8 km/h 6.9 km/h 94% 0.0 mm 0 W/m2
08:04 -2.5 °C -3.3 °C 1015.6 hPa NE 4.1 km/h 7.2 km/h 94.1% 0.0 mm 2 W/m2
08:09 -2.5 °C -3.3 °C 1015.6 hPa NNE 4.7 km/h 8.7 km/h 94.3% 0.0 mm 2 W/m2
08:14 -2.5 °C -3.3 °C 1015.6 hPa NNE 4.4 km/h 7.9 km/h 93.7% 0.0 mm 2 W/m2
08:19 -2.4 °C -3.4 °C 1015.6 hPa North 3.7 km/h 9.3 km/h 93% 0.0 mm 4 W/m2
08:24 -2.4 °C -3.4 °C 1015.6 hPa NNE 4.5 km/h 9.7 km/h 92.7% 0.0 mm 5 W/m2
08:29 -2.4 °C -3.8 °C 1015.6 hPa NNE 4.8 km/h 9.7 km/h 89.8% 0.0 mm 6 W/m2
08:34 -2.3 °C -3.7 °C 1015.6 hPa NE 3.3 km/h 8.7 km/h 90% 0.0 mm 7 W/m2
08:39 -2.3 °C -3.7 °C 1015.6 hPa NE 2.3 km/h 5.8 km/h 90.6% 0.0 mm 8 W/m2
08:44 -2.3 °C -3.8 °C 1015.6 hPa NNE 2.7 km/h 7.2 km/h 89.8% 0.0 mm 9 W/m2
08:49 -2.3 °C -4.1 °C 1015.9 hPa NE 2.2 km/h 7.2 km/h 87.2% 0.0 mm 9 W/m2
08:54 -2.2 °C -4 °C 1015.9 hPa ENE 1.4 km/h 6.1 km/h 87.6% 0.0 mm 9 W/m2
08:59 -2.1 °C -3.7 °C 1015.9 hPa SE 2.3 km/h 6.1 km/h 88.9% 0.0 mm 10 W/m2
09:04 -2.2 °C -3.6 °C 1015.9 hPa East 1.5 km/h 5 km/h 90% 0.0 mm 13 W/m2
09:09 -2.2 °C -3.9 °C 1015.9 hPa NE 3.3 km/h 9.3 km/h 87.9% 0.0 mm 16 W/m2
09:14 -2.1 °C -4.3 °C 1015.9 hPa NNE 4.8 km/h 11.6 km/h 84.1% 0.0 mm 16 W/m2
09:19 -1.9 °C -4.4 °C 1015.9 hPa NE 4.5 km/h 9.3 km/h 82.8% 0.0 mm 16 W/m2
09:24 -1.8 °C -4.1 °C 1015.9 hPa NE 2.4 km/h 6.9 km/h 84.1% 0.0 mm 20 W/m2
09:29 -1.8 °C -4.1 °C 1016.3 hPa NE 2.7 km/h 5.8 km/h 84.4% 0.0 mm 20 W/m2
09:34 -1.7 °C -4.4 °C 1016.3 hPa NE 3.1 km/h 5.5 km/h 81.8% 0.0 mm 21 W/m2
09:39 -1.6 °C -4.8 °C 1016.3 hPa North 4 km/h 10.1 km/h 79.2% 0.0 mm 28 W/m2
09:49 -1.6 °C -4.8 °C 1016.3 hPa North 1.7 km/h 6.4 km/h 79% 0.0 mm 30 W/m2
09:54 -1.5 °C -5.1 °C 1016.3 hPa NNE 1.4 km/h 4.7 km/h 76.9% 0.0 mm 27 W/m2
09:59 -1.5 °C -5.1 °C 1016.3 hPa ENE 2.1 km/h 4.7 km/h 76.6% 0.0 mm 25 W/m2
10:04 -1.4 °C -4.7 °C 1016.3 hPa NE 2.9 km/h 9.3 km/h 78.2% 0.0 mm 27 W/m2
10:09 -1.5 °C -4.7 °C 1016.3 hPa NNE 2 km/h 9.3 km/h 78.5% 0.0 mm 29 W/m2
10:14 -1.4 °C -4.8 °C 1016.3 hPa North 2.2 km/h 5.5 km/h 77.8% 0.0 mm 32 W/m2
10:19 -1.4 °C -4.7 °C 1016.6 hPa NE 1.7 km/h 5 km/h 78.4% 0.0 mm 34 W/m2
10:24 -1.3 °C -4.7 °C 1016.6 hPa NE 2.1 km/h 6.1 km/h 78% 0.0 mm 35 W/m2
10:29 -1.3 °C -5.1 °C 1016.6 hPa North 2.7 km/h 6.1 km/h 75.9% 0.0 mm 38 W/m2
10:34 -1.3 °C -4.9 °C 1016.3 hPa North 2.6 km/h 6.1 km/h 76.5% 0.0 mm 40 W/m2
10:39 -1.3 °C -4.8 °C 1016.3 hPa NNE 2.7 km/h 6.1 km/h 76.8% 0.0 mm 38 W/m2
10:44 -1.2 °C -4.7 °C 1016.3 hPa North 4.3 km/h 9 km/h 77.1% 0.0 mm 40 W/m2
10:49 -1.3 °C -5 °C 1016.3 hPa North 8.8 km/h 17.7 km/h 76.2% 0.0 mm 44 W/m2
10:54 -1.5 °C -5.2 °C 1016.3 hPa North 6.4 km/h 17.7 km/h 75.9% 0.0 mm 46 W/m2
10:59 -1.6 °C -5.2 °C 1016.3 hPa North 5.3 km/h 10.8 km/h 76.6% 0.0 mm 50 W/m2
11:04 -1.6 °C -5.4 °C 1016.3 hPa North 4.5 km/h 9.3 km/h 75% 0.0 mm 54 W/m2
11:09 -1.4 °C -5.6 °C 1016.3 hPa North 6.1 km/h 15.4 km/h 73.2% 0.0 mm 54 W/m2
11:14 -1.4 °C -5.7 °C 1016.3 hPa North 6.1 km/h 10.8 km/h 72.7% 0.0 mm 51 W/m2
11:19 -1.4 °C -5.8 °C 1016.3 hPa NNE 6.1 km/h 10.8 km/h 71.9% 0.0 mm 55 W/m2
11:24 -1.4 °C -5.8 °C 1015.9 hPa North 4.5 km/h 9.7 km/h 72.2% 0.0 mm 55 W/m2
11:29 -1.3 °C -5.7 °C 1015.9 hPa NNW 4.1 km/h 9.3 km/h 72.1% 0.0 mm 49 W/m2
11:34 -1.3 °C -5.8 °C 1015.9 hPa North 5.6 km/h 14.3 km/h 71.7% 0.0 mm 47 W/m2
11:39 -1.3 °C -5.8 °C 1015.9 hPa North 6.8 km/h 14.8 km/h 71.6% 0.0 mm 49 W/m2
11:44 -1.3 °C -6.2 °C 1015.9 hPa North 5.5 km/h 10.8 km/h 69.6% 0.0 mm 55 W/m2
11:49 -1.2 °C -6 °C 1015.9 hPa North 3.2 km/h 6.9 km/h 70% 0.0 mm 58 W/m2
11:54 -1.2 °C -5.8 °C 1015.6 hPa North 4.6 km/h 10.8 km/h 70.6% 0.0 mm 58 W/m2
11:59 -1.1 °C -5.6 °C 1015.6 hPa North 6.2 km/h 13.7 km/h 71.7% 0.0 mm 60 W/m2
12:04 -1.1 °C -5.2 °C 1015.6 hPa North 6.4 km/h 13.7 km/h 73.4% 0.0 mm 60 W/m2
12:09 -1.3 °C -4.7 °C 1015.2 hPa North 5.3 km/h 13 km/h 77.7% 0.0 mm 69 W/m2
12:14 -1.4 °C -4.6 °C 1015.2 hPa North 5.8 km/h 9.3 km/h 79% 0.0 mm 73 W/m2
12:19 -1.5 °C -4.4 °C 1015.6 hPa North 5.5 km/h 9 km/h 80.4% 0.0 mm 70 W/m2
12:24 -1.5 °C -4.4 °C 1015.6 hPa NNE 5.4 km/h 9.3 km/h 80.6% 0.0 mm 65 W/m2
12:29 -1.5 °C -4.3 °C 1015.6 hPa NNE 7.1 km/h 12.2 km/h 80.9% 0.0 mm 67 W/m2
12:34 -1.5 °C -4.7 °C 1015.6 hPa North 7.8 km/h 14.3 km/h 78.6% 0.0 mm 68 W/m2
12:39 -1.6 °C -4.9 °C 1015.2 hPa NNE 7.9 km/h 16.3 km/h 77.7% 0.0 mm 73 W/m2
12:44 -1.6 °C -5.1 °C 1015.2 hPa North 8.1 km/h 16.3 km/h 77.1% 0.0 mm 82 W/m2
12:49 -1.6 °C -5 °C 1015.2 hPa North 5.9 km/h 11.1 km/h 77.4% 0.0 mm 84 W/m2
12:54 -1.4 °C -5 °C 1015.2 hPa North 3.7 km/h 10.8 km/h 76.7% 0.0 mm 84 W/m2
12:59 -1.2 °C -5.5 °C 1015.2 hPa North 5.6 km/h 10.5 km/h 72.8% 0.0 mm 82 W/m2
13:04 -1.1 °C -5.8 °C 1015.2 hPa North 5.5 km/h 10.1 km/h 70.3% 0.0 mm 77 W/m2
13:09 -1.1 °C -6 °C 1014.9 hPa North 5 km/h 9.3 km/h 69.4% 0.0 mm 71 W/m2
13:14 -1.1 °C -5.7 °C 1014.9 hPa North 3.9 km/h 6.9 km/h 70.6% 0.0 mm 68 W/m2
13:19 -0.9 °C -5.9 °C 1014.9 hPa North 4.2 km/h 8.7 km/h 69.4% 0.0 mm 66 W/m2
13:24 -0.9 °C -6.1 °C 1014.9 hPa North 3.8 km/h 8.7 km/h 68% 0.0 mm 63 W/m2
13:29 -0.8 °C -6 °C 1014.6 hPa North 3.9 km/h 8.7 km/h 68.2% 0.0 mm 63 W/m2
13:34 -0.8 °C -5.9 °C 1014.6 hPa North 4.1 km/h 8.2 km/h 68.4% 0.0 mm 62 W/m2
13:39 -0.8 °C -6 °C 1014.6 hPa North 4.3 km/h 8.7 km/h 68% 0.0 mm 67 W/m2
13:44 -0.7 °C -6.2 °C 1014.6 hPa NNE 5.5 km/h 12.2 km/h 66.2% 0.0 mm 69 W/m2
13:49 -0.7 °C -6.2 °C 1014.6 hPa North 5 km/h 12.2 km/h 66.6% 0.0 mm 69 W/m2
13:54 -0.8 °C -6.6 °C 1014.6 hPa North 6.9 km/h 11.6 km/h 64.6% 0.0 mm 64 W/m2
13:59 -0.8 °C -6.9 °C 1014.6 hPa North 5.2 km/h 13.4 km/h 63.4% 0.0 mm 61 W/m2
14:04 -0.8 °C -7 °C 1014.6 hPa North 4.2 km/h 11.1 km/h 62.6% 0.0 mm 64 W/m2
14:09 -0.7 °C -7.3 °C 1014.2 hPa North 7.2 km/h 14.8 km/h 60.8% 0.0 mm 66 W/m2
14:14 -0.7 °C -7.6 °C 1014.2 hPa North 7.1 km/h 14.8 km/h 59.6% 0.0 mm 66 W/m2
14:19 -0.7 °C -6.9 °C 1014.2 hPa North 8.5 km/h 17.7 km/h 63% 0.0 mm 64 W/m2
14:24 -0.8 °C -6.6 °C 1014.2 hPa North 7.5 km/h 16.3 km/h 64.6% 0.0 mm 62 W/m2
14:29 -0.8 °C -6.3 °C 1014.2 hPa North 3.4 km/h 10.8 km/h 65.8% 0.0 mm 58 W/m2
14:34 -0.7 °C -6.4 °C 1014.2 hPa North 5.9 km/h 13 km/h 65.4% 0.0 mm 55 W/m2
14:39 -0.7 °C -6.7 °C 1014.2 hPa North 6.4 km/h 13 km/h 64% 0.0 mm 51 W/m2
14:44 -0.7 °C -6.8 °C 1014.2 hPa North 4.4 km/h 10.8 km/h 63.4% 0.0 mm 47 W/m2
14:49 -0.7 °C -6.6 °C 1014.6 hPa North 4.2 km/h 10.8 km/h 64.4% 0.0 mm 46 W/m2
14:59 -0.6 °C -6 °C 1014.2 hPa North 1.4 km/h 5 km/h 67% 0.0 mm 47 W/m2
15:04 -0.5 °C -6.1 °C 1014.2 hPa NE 0.6 km/h 4.7 km/h 65.8% 0.0 mm 43 W/m2
15:09 -0.5 °C -6.1 °C 1014.2 hPa NW 0.7 km/h 5 km/h 66.2% 0.0 mm 50 W/m2
15:14 -0.4 °C -6.5 °C 1014.2 hPa ENE 1.8 km/h 5 km/h 63.4% 0.0 mm 53 W/m2
15:19 -0.4 °C -6.7 °C 1014.2 hPa ENE 2.9 km/h 5 km/h 62.4% 0.0 mm 53 W/m2
15:24 -0.4 °C -5.8 °C 1014.2 hPa East 1.4 km/h 4.7 km/h 67% 0.0 mm 49 W/m2
15:29 -0.4 °C -5.9 °C 1014.2 hPa West 1.8 km/h 5 km/h 66.4% 0.0 mm 51 W/m2
15:34 -0.4 °C -6.4 °C 1014.2 hPa East 2.1 km/h 5.5 km/h 64% 0.0 mm 55 W/m2
15:39 -0.4 °C -6.1 °C 1014.2 hPa East 1.8 km/h 4.7 km/h 65.3% 0.0 mm 54 W/m2
15:44 -0.5 °C -6.1 °C 1014.6 hPa North 0.2 km/h 4.7 km/h 66% 0.0 mm 55 W/m2
15:49 -0.5 °C -6.1 °C 1014.6 hPa ENE 0.7 km/h 4.7 km/h 66.2% 0.0 mm 51 W/m2
15:54 -0.5 °C -6.1 °C 1014.6 hPa WNW 0.9 km/h 4.7 km/h 66.2% 0.0 mm 51 W/m2
15:59 -0.5 °C -6.2 °C 1014.6 hPa SSW 1.7 km/h 4.7 km/h 65.4% 0.0 mm 52 W/m2
16:04 -0.5 °C -6.1 °C 1014.6 hPa SSE 1.3 km/h 5.5 km/h 66% 0.0 mm 52 W/m2
16:09 -0.5 °C -6.3 °C 1014.6 hPa NE 1.1 km/h 4.7 km/h 65% 0.0 mm 43 W/m2
16:14 -0.4 °C -6.2 °C 1014.6 hPa ESE 3.1 km/h 9.3 km/h 65.2% 0.0 mm 38 W/m2
16:19 -0.5 °C -5.4 °C 1014.6 hPa SSE 3.7 km/h 9.3 km/h 69.8% 0.0 mm 34 W/m2
16:24 -0.7 °C -5.1 °C 1014.6 hPa ESE 3 km/h 8.7 km/h 71.8% 0.0 mm 31 W/m2
16:29 -0.8 °C -5.2 °C 1014.6 hPa ESE 5.2 km/h 10.8 km/h 72.2% 0.0 mm 33 W/m2
16:34 -0.9 °C -5 °C 1014.6 hPa East 4.5 km/h 10.8 km/h 73.4% 0.0 mm 33 W/m2
16:44 -0.9 °C -9.1 °C 1014.6 hPa North 2.6 km/h 6.9 km/h 54% 0.0 mm 26 W/m2
16:49 -0.9 °C -9.4 °C 1014.6 hPa NE 1.7 km/h 6.9 km/h 52.8% 0.0 mm 22 W/m2
16:59 -1 °C -9.4 °C 1014.6 hPa North 5.7 km/h 10.1 km/h 52.8% 0.0 mm 15 W/m2
17:04 -1.1 °C -9.4 °C 1014.6 hPa North 0.7 km/h 7.9 km/h 53.4% 0.0 mm 13 W/m2
17:09 -1.1 °C -7.5 °C 1014.9 hPa South 2.1 km/h 6.4 km/h 61.8% 0.0 mm 11 W/m2
17:14 -1.2 °C -5.9 °C 1014.9 hPa SSW 3.8 km/h 7.9 km/h 70% 0.0 mm 9 W/m2
17:19 -1.3 °C -5.6 °C 1014.9 hPa SSE 3 km/h 6.1 km/h 72.4% 0.0 mm 6 W/m2
17:24 -1.4 °C -5.4 °C 1015.2 hPa SSE 1.5 km/h 5.8 km/h 73.8% 0.0 mm 4 W/m2
17:29 -1.4 °C -5.4 °C 1015.2 hPa East 2.8 km/h 5.8 km/h 74.3% 0.0 mm 3 W/m2
17:34 -1.6 °C -5.6 °C 1015.2 hPa ENE 4 km/h 7.2 km/h 73.6% 0.0 mm 2 W/m2
17:39 -1.7 °C -6.9 °C 1015.2 hPa NE 2.8 km/h 7.2 km/h 67.6% 0.0 mm 0 W/m2
17:44 -1.7 °C -9.8 °C 1015.2 hPa NNE 2.9 km/h 6.9 km/h 54% 0.0 mm 0 W/m2
17:49 -1.8 °C -10.2 °C 1015.2 hPa East 4.2 km/h 7.6 km/h 52.7% 0.0 mm 0 W/m2
17:54 -1.9 °C -10.1 °C 1015.2 hPa East 3.8 km/h 7.6 km/h 53.6% 0.0 mm 0 W/m2
17:59 -2 °C -10.7 °C 1015.2 hPa ENE 1.2 km/h 5 km/h 51.2% 0.0 mm 0 W/m2
18:04 -2.1 °C -10.5 °C 1015.2 hPa ESE 1.1 km/h 7.2 km/h 52.6% 0.0 mm 0 W/m2
18:09 -2.2 °C -9.6 °C 1015.2 hPa SW 0.4 km/h 3.5 km/h 57% 0.0 mm 0 W/m2
18:14 -2.4 °C -9.2 °C 1015.2 hPa SW 0.8 km/h 5.5 km/h 59.4% 0.0 mm 0 W/m2
18:19 -2.6 °C -8.7 °C 1015.6 hPa East 0.6 km/h 4 km/h 62.7% 0.0 mm 0 W/m2
18:24 -2.7 °C -7.5 °C 1015.6 hPa NW 0.4 km/h 2.9 km/h 69.4% 0.0 mm 0 W/m2
18:29 -2.8 °C -6 °C 1015.9 hPa North 1.2 km/h 5 km/h 78.5% 0.0 mm 0 W/m2
18:34 -2.9 °C -5.6 °C 1015.9 hPa North 1.1 km/h 5.8 km/h 81.5% 0.0 mm 0 W/m2
18:38 -3 °C -5.6 °C 1015.9 hPa ENE 0.8 km/h 3.2 km/h 82% 0.0 mm 0 W/m2
18:44 -3 °C -5.9 °C 1015.9 hPa NE 1.8 km/h 8.2 km/h 80.4% 0.0 mm 0 W/m2
18:49 -3.1 °C -6.6 °C 1015.9 hPa NNE 2.8 km/h 5.8 km/h 77% 0.0 mm 0 W/m2
18:54 -3.1 °C -8.1 °C 1015.9 hPa North 6.2 km/h 14.8 km/h 68.6% 0.0 mm 0 W/m2
18:59 -3.2 °C -11.2 °C 1015.9 hPa North 6.1 km/h 14.8 km/h 53.8% 0.0 mm 0 W/m2
19:04 -3.2 °C -11.4 °C 1015.9 hPa NNW 5.1 km/h 13 km/h 53.2% 0.0 mm 0 W/m2
19:09 -3.3 °C -10.4 °C 1015.9 hPa NNW 2.6 km/h 7.6 km/h 58% 0.0 mm 0 W/m2
19:14 -3.6 °C -9.3 °C 1015.9 hPa North 1.5 km/h 4.3 km/h 64.6% 0.0 mm 0 W/m2
19:19 -3.7 °C -9.2 °C 1015.9 hPa North 2.5 km/h 5 km/h 65.7% 0.0 mm 0 W/m2
19:24 -3.8 °C -9.8 °C 1015.9 hPa NNW 3.3 km/h 7.9 km/h 62.9% 0.0 mm 0 W/m2
19:29 -3.8 °C -10.5 °C 1015.9 hPa North 5.2 km/h 12.2 km/h 59.4% 0.0 mm 0 W/m2
19:34 -3.8 °C -11.5 °C 1015.9 hPa North 7.5 km/h 12.6 km/h 54.8% 0.0 mm 0 W/m2
19:39 -3.7 °C -11.4 °C 1015.9 hPa NNW 5.8 km/h 11.1 km/h 55% 0.0 mm 0 W/m2
19:44 -3.8 °C -11.1 °C 1015.9 hPa NNW 3.7 km/h 8.2 km/h 56.8% 0.0 mm 0 W/m2
19:49 -3.8 °C -11.6 °C 1015.9 hPa NNW 3.5 km/h 8.2 km/h 54.4% 0.0 mm 0 W/m2
19:54 -3.8 °C -11.6 °C 1015.9 hPa North 4.7 km/h 13 km/h 54.4% 0.0 mm 0 W/m2
19:59 -3.8 °C -11 °C 1015.9 hPa NNW 2.9 km/h 7.9 km/h 57.4% 0.0 mm 0 W/m2
20:04 -4 °C -10.8 °C 1016.3 hPa NNW 3.4 km/h 9 km/h 58.6% 0.0 mm 0 W/m2
20:09 -4.1 °C -10.6 °C 1016.3 hPa NNW 1.7 km/h 8.2 km/h 60.4% 0.0 mm 0 W/m2
20:14 -4.2 °C -11.2 °C 1016.3 hPa North 3.2 km/h 11.1 km/h 58.2% 0.0 mm 0 W/m2
20:19 -4.2 °C -11.2 °C 1016.3 hPa North 3.2 km/h 10.8 km/h 58% 0.0 mm 0 W/m2
20:24 -4.2 °C -11.3 °C 1016.3 hPa NNW 6.2 km/h 13.7 km/h 57.4% 0.0 mm 0 W/m2
20:29 -4.1 °C -11.8 °C 1016.3 hPa North 3.2 km/h 10.1 km/h 55.1% 0.0 mm 0 W/m2
20:34 -4 °C -11.8 °C 1016.3 hPa North 5.1 km/h 10.1 km/h 54.7% 0.0 mm 0 W/m2
20:39 -4.1 °C -12.1 °C 1016.3 hPa North 4.2 km/h 14.8 km/h 53.7% 0.0 mm 0 W/m2
20:44 -3.9 °C -12.4 °C 1016.3 hPa North 5.5 km/h 14.8 km/h 51.7% 0.0 mm 0 W/m2
20:49 -3.9 °C -12 °C 1016.3 hPa NNW 4 km/h 9.7 km/h 53.2% 0.0 mm 0 W/m2
20:54 -4 °C -11.8 °C 1016.3 hPa NNW 3.3 km/h 9 km/h 54.6% 0.0 mm 0 W/m2
20:59 -4 °C -12.3 °C 1016.3 hPa North 4.9 km/h 10.8 km/h 52.6% 0.0 mm 0 W/m2
21:09 -4 °C -12.3 °C 1016.6 hPa North 5.6 km/h 11.6 km/h 52.4% 0.0 mm 0 W/m2
21:14 -4 °C -12.3 °C 1016.6 hPa North 7.7 km/h 12.2 km/h 52.8% 0.0 mm 0 W/m2
21:19 -4.1 °C -12.1 °C 1016.6 hPa North 6.9 km/h 12.2 km/h 53.6% 0.0 mm 0 W/m2
21:24 -4.1 °C -11.9 °C 1016.6 hPa North 6.6 km/h 11.1 km/h 54.4% 0.0 mm 0 W/m2
21:29 -4.2 °C -11.9 °C 1016.6 hPa North 7.5 km/h 13 km/h 55% 0.0 mm 0 W/m2
21:34 -4.2 °C -12 °C 1016.6 hPa North 8.6 km/h 13.4 km/h 54.4% 0.0 mm 0 W/m2
21:44 -4.4 °C -12.2 °C 1016.6 hPa North 5.6 km/h 13.4 km/h 54.4% 0.0 mm 0 W/m2
21:49 -4.4 °C -12.2 °C 1016.6 hPa North 4.9 km/h 11.1 km/h 54.2% 0.0 mm 0 W/m2
21:54 -4.3 °C -12.2 °C 1016.6 hPa North 3.9 km/h 10.1 km/h 54.4% 0.0 mm 0 W/m2
21:59 -4.5 °C -11.8 °C 1016.6 hPa North 4.5 km/h 9.3 km/h 56.2% 0.0 mm 0 W/m2
22:04 -4.6 °C -12 °C 1016.6 hPa NNW 2.8 km/h 9.3 km/h 55.8% 0.0 mm 0 W/m2
22:09 -4.7 °C -12.4 °C 1016.6 hPa North 3.9 km/h 9.3 km/h 54.8% 0.0 mm 0 W/m2
22:14 -4.7 °C -12.3 °C 1016.6 hPa North 4.3 km/h 11.9 km/h 55% 0.0 mm 0 W/m2
22:19 -4.7 °C -12.2 °C 1016.6 hPa North 5.1 km/h 11.9 km/h 55.6% 0.0 mm 0 W/m2
22:24 -4.7 °C -12.7 °C 1016.6 hPa North 5.2 km/h 11.1 km/h 53.5% 0.0 mm 0 W/m2
22:29 -4.7 °C -12.6 °C 1016.6 hPa North 6.5 km/h 14 km/h 53.7% 0.0 mm 0 W/m2
22:34 -4.7 °C -12.6 °C 1016.6 hPa North 5.7 km/h 16.6 km/h 53.7% 0.0 mm 0 W/m2
22:39 -4.5 °C -13.2 °C 1016.6 hPa NNW 13.9 km/h 28.8 km/h 50.6% 0.0 mm 0 W/m2
22:44 -4.2 °C -13.6 °C 1016.6 hPa North 13.2 km/h 28.8 km/h 48.1% 0.0 mm 0 W/m2
22:49 -4.1 °C -13.5 °C 1016.3 hPa North 17 km/h 30.3 km/h 47.8% 0.0 mm 0 W/m2
22:54 -4 °C -13.4 °C 1016.6 hPa North 10.8 km/h 25.9 km/h 47.9% 0.0 mm 0 W/m2
22:59 -4 °C -12.7 °C 1016.6 hPa North 5.2 km/h 19.8 km/h 50.7% 0.0 mm 0 W/m2
23:04 -4.2 °C -12.8 °C 1016.6 hPa North 6 km/h 13.7 km/h 51.3% 0.0 mm 0 W/m2
23:09 -4.3 °C -13 °C 1016.6 hPa North 5.9 km/h 11.9 km/h 50.6% 0.0 mm 0 W/m2
23:14 -4.3 °C -12.8 °C 1016.6 hPa North 4.5 km/h 11.9 km/h 51.7% 0.0 mm 0 W/m2
23:19 -4.4 °C -13 °C 1016.6 hPa North 5.2 km/h 9.7 km/h 51.3% 0.0 mm 0 W/m2
23:24 -4.4 °C -13.1 °C 1016.6 hPa North 6.3 km/h 15.4 km/h 50.8% 0.0 mm 0 W/m2
23:29 -4.5 °C -13 °C 1016.6 hPa North 9.5 km/h 15.4 km/h 51.4% 0.0 mm 0 W/m2
23:34 -4.5 °C -13.5 °C 1016.6 hPa North 4.6 km/h 15.8 km/h 49% 0.0 mm 0 W/m2
23:39 -4.3 °C -13.4 °C 1016.6 hPa NNE 9.3 km/h 14.8 km/h 49.1% 0.0 mm 0 W/m2
23:44 -4.4 °C -13.1 °C 1016.6 hPa NW 6.3 km/h 14 km/h 50.5% 0.0 mm 0 W/m2
23:49 -4.5 °C -13.2 °C 1016.6 hPa NW 4 km/h 10.8 km/h 50.6% 0.0 mm 0 W/m2
23:54 -4.6 °C -12.9 °C 1016.6 hPa NNW 2.3 km/h 6.9 km/h 52.3% 0.0 mm 0 W/m2
23:59 -4.7 °C -13 °C 1016.6 hPa NW 3.4 km/h 8.7 km/h 52.2% 0.0 mm 0 W/m2
Juneau County Weather
Compliments of Weather Underground - 2 mb